Pointe-Au-Pere, Canada
Current Conditions -  °F | °C
As of 6:00 PM on Friday 31 Oct 2014 (Local Time) from CYYY Reporting Station
Broken Clouds Broken Clouds  
Wind Chill: 37°   Ceiling: 8000
Heat Index: 37°   Visibility: 30mi
Dew Point: 28°   Wind: 3mph
Humidity: 70%   Direction: 220°SW
Pressure: 30.13"   Gusts: NA
Location:  48.52°N, 68.47°W
Report Text: CYYY 312200Z 22003KT 30SM SCT030 BKN080 03/M02 A3013 RMK SC3AC4 SLP205
Loading
Personal Weather Stations






























Interactive Weather Map
Tropical Storm Tracking
New forecast layout! Learn more

10-Day Weather Forecast

Advertisements
Track Severe Weather on mobile